Time,TemperatureF,DewpointF,PressureIn,WindDirection,WindDirectionDegrees,WindSpeedMPH,WindSpeedGustMPH,Humidity,HourlyPrecipIn,Conditions,Clouds,dailyrainin,SoftwareType,DateUTC
2013-11-26 00:23:00,32.0,32.0,30.17,SSW,201,0.0,0.0,100,0.00,,,0.00,,2013-11-26 05:23:00,
2013-11-26 00:53:00,31.0,31.0,30.15,SSW,201,0.0,0.0,100,0.00,,,0.00,,2013-11-26 05:53:00,
2013-11-26 01:22:00,32.0,32.0,30.14,SSW,201,0.0,0.0,100,0.00,,,0.00,,2013-11-26 06:22:00,
2013-11-26 01:52:00,32.0,32.0,30.14,SSW,201,0.0,0.0,100,0.00,,,0.00,,2013-11-26 06:52:00,
2013-11-26 02:21:00,32.0,32.0,30.14,SSW,201,0.0,0.0,100,0.00,,,0.00,,2013-11-26 07:21:00,
2013-11-26 02:52:00,32.0,32.0,30.12,SSW,201,0.0,0.0,100,0.00,,,0.00,,2013-11-26 07:52:00,
2013-11-26 03:22:00,32.0,32.0,30.13,SSW,201,0.0,0.0,100,0.00,,,0.00,,2013-11-26 08:22:00,
2013-11-26 03:52:00,32.0,32.0,30.14,SSW,201,0.0,0.0,100,0.00,,,0.00,,2013-11-26 08:52:00,
2013-11-26 04:22:00,32.0,32.0,30.11,SSW,201,0.0,0.0,100,0.00,,,0.00,,2013-11-26 09:22:00,
2013-11-26 04:54:00,32.0,32.0,30.10,SSW,201,0.0,0.0,100,0.00,,,0.00,,2013-11-26 09:54:00,
2013-11-26 05:23:00,32.0,32.0,30.09,SSW,201,0.0,0.0,100,0.01,,,0.00,,2013-11-26 10:23:00,
2013-11-26 05:53:00,32.0,32.0,30.09,SSW,201,0.0,0.0,100,0.01,,,0.00,,2013-11-26 10:53:00,
2013-11-26 06:23:00,32.0,32.0,30.09,SSW,201,0.0,0.0,100,0.00,,,0.00,,2013-11-26 11:23:00,
2013-11-26 06:52:00,32.0,32.0,30.07,SSW,201,0.0,0.0,100,0.00,,,0.00,,2013-11-26 11:52:00,
2013-11-26 07:22:00,33.0,33.0,30.07,SSW,201,0.0,0.0,100,0.02,,,0.00,,2013-11-26 12:22:00,
2013-11-26 07:52:00,33.0,33.0,30.05,SSW,201,0.0,0.0,100,0.02,,,0.00,,2013-11-26 12:52:00,
2013-11-26 08:22:00,33.0,33.0,30.05,SSW,201,0.0,0.0,100,0.02,,,0.00,,2013-11-26 13:22:00,
2013-11-26 08:42:00,33.0,33.0,30.04,SSW,201,0.0,0.0,100,0.02,,,0.00,,2013-11-26 13:42:00,
2013-11-26 08:52:00,33.0,33.0,30.03,SSW,201,0.0,0.0,100,0.02,,,0.00,,2013-11-26 13:52:00,
2013-11-26 09:22:00,33.0,33.0,30.01,SSW,201,0.0,0.0,100,0.04,,,0.00,,2013-11-26 14:22:00,
2013-11-26 09:52:00,33.0,33.0,30.00,SSW,201,0.0,0.0,100,0.04,,,0.00,,2013-11-26 14:52:00,
2013-11-26 10:22:00,33.0,33.0,29.99,East,101,0.0,0.0,100,0.04,,,0.00,,2013-11-26 15:22:00,
2013-11-26 10:54:00,33.0,33.0,30.00,West,260,0.0,0.0,100,0.14,,,0.00,,2013-11-26 15:54:00,
2013-11-26 11:23:00,33.0,33.0,29.98,West,276,0.0,0.0,100,0.12,,,0.00,,2013-11-26 16:23:00,
2013-11-26 11:54:00,34.0,34.0,29.96,NW,325,0.0,2.0,100,0.12,,,0.00,,2013-11-26 16:54:00,
2013-11-26 12:22:00,34.0,34.0,29.94,NNW,333,0.0,0.0,100,0.04,,,0.00,,2013-11-26 17:22:00,
2013-11-26 12:52:00,34.0,34.0,29.90,WNW,298,0.0,0.0,100,0.04,,,0.00,,2013-11-26 17:52:00,
2013-11-26 13:22:00,35.0,35.0,29.89,West,267,0.0,0.0,100,0.04,,,0.00,,2013-11-26 18:22:00,
2013-11-26 13:53:00,35.0,35.0,29.88,NW,304,0.0,0.0,100,0.04,,,0.00,,2013-11-26 18:53:00,
2013-11-26 14:22:00,35.0,35.0,29.87,NW,309,0.0,0.0,100,0.06,,,0.00,,2013-11-26 19:22:00,
2013-11-26 14:52:00,35.0,35.0,29.88,NW,311,0.0,0.0,100,0.06,,,0.00,,2013-11-26 19:52:00,
2013-11-26 15:22:00,35.0,35.0,29.85,NW,309,0.0,0.0,100,0.07,,,0.00,,2013-11-26 20:22:00,
2013-11-26 15:53:00,35.0,35.0,29.84,NW,311,0.0,0.0,100,0.07,,,0.00,,2013-11-26 20:53:00,
2013-11-26 16:22:00,35.0,35.0,29.83,NW,316,0.0,0.0,100,0.03,,,0.00,,2013-11-26 21:22:00,
2013-11-26 16:53:00,35.0,35.0,29.83,NW,308,0.0,0.0,100,0.03,,,0.00,,2013-11-26 21:53:00,
2013-11-26 17:23:00,35.0,35.0,29.81,NNW,345,0.0,0.0,100,0.05,,,0.00,,2013-11-26 22:23:00,
2013-11-26 17:53:00,35.0,35.0,29.83,West,260,0.0,0.0,100,0.05,,,0.00,,2013-11-26 22:53:00,
2013-11-26 18:22:00,34.0,34.0,29.82,West,259,0.0,0.0,100,0.03,,,0.00,,2013-11-26 23:22:00,
2013-11-26 18:53:00,34.0,34.0,29.80,SW,229,1.0,0.0,100,0.03,,,0.00,,2013-11-26 23:53:00,
2013-11-26 19:22:00,34.0,34.0,29.83,WNW,298,1.0,0.0,100,0.02,,,0.00,,2013-11-27 00:22:00,
2013-11-26 19:52:00,33.0,33.0,29.84,West,273,1.0,0.0,100,0.02,,,0.00,,2013-11-27 00:52:00,
2013-11-26 20:22:00,32.0,32.0,29.85,WNW,285,1.0,0.0,100,0.01,,,0.00,,2013-11-27 01:22:00,
2013-11-26 20:52:00,32.0,32.0,29.84,West,264,1.0,1.0,100,0.01,,,0.00,,2013-11-27 01:52:00,
2013-11-26 21:22:00,32.0,32.0,29.84,WNW,287,0.0,0.0,100,0.00,,,0.00,,2013-11-27 02:22:00,
2013-11-26 21:52:00,32.0,32.0,29.85,NNW,338,0.0,0.0,100,0.00,,,0.00,,2013-11-27 02:52:00,
2013-11-26 22:22:00,31.0,31.0,29.85,WNW,294,0.0,1.0,100,0.00,,,0.00,,2013-11-27 03:22:00,
2013-11-26 22:54:00,31.0,31.0,29.86,West,277,0.0,0.0,100,0.00,,,0.00,,2013-11-27 03:54:00,
2013-11-26 23:13:00,31.0,31.0,29.84,North,0,4.0,4.0,100,0.00,,,0.00,,2013-11-27 04:13:00,
2013-11-26 23:53:00,31.0,31.0,29.84,WNW,288,3.0,3.0,100,0.00,,,0.70,,2013-11-27 04:53:00,